This is the latest recevied weather packets stored in our database for station/object VU2FI-13. If no packets are shown the sender has not sent any weather packets the latest 10 day(s).
| Time | Temp. | Humidity | Pressure | Rain* | Wind** | Luminosity | Snow |
|---|---|---|---|---|---|---|---|
| 1777394918 | 35° C | 41% | 912 hPa | - | - | - | - |
| 1777394318 | 35° C | 41% | 912 hPa | - | - | - | - |
| 1777393720 | 35° C | 41% | 912 hPa | - | - | - | - |
| 1777393118 | 35° C | 41% | 912 hPa | - | - | - | - |
| 1777392518 | 35° C | 41% | 912 hPa | - | - | - | - |
| 1777391918 | 34.44° C | 42% | 912 hPa | - | - | - | - |
| 1777391318 | 34.44° C | 42% | 911 hPa | - | - | - | - |
| 1777390718 | 33.89° C | 43% | 911 hPa | - | - | - | - |
| 1777390118 | 34.44° C | 42% | 911 hPa | - | - | - | - |
| 1777389519 | 34.44° C | 42% | 911 hPa | - | - | - | - |
| 1777388918 | 34.44° C | 41% | 911 hPa | - | - | - | - |
| 1777388318 | 35.56° C | 40% | 911 hPa | - | - | - | - |
| 1777387718 | 35.56° C | 39% | 910 hPa | - | - | - | - |
| 1777387118 | 35.56° C | 39% | 910 hPa | - | - | - | - |
| 1777386518 | 35.56° C | 41% | 910 hPa | - | - | - | - |
| 1777385918 | 33.89° C | 44% | 910 hPa | - | - | - | - |
| 1777385318 | 33.89° C | 44% | 909 hPa | - | - | - | - |
| 1777384718 | 34.44° C | 40% | 910 hPa | - | - | - | - |
| 1777384118 | 34.44° C | 40% | 910 hPa | - | - | - | - |
| 1777383518 | 34.44° C | 40% | 910 hPa | - | - | - | - |
| 1777382918 | 34.44° C | 40% | 910 hPa | - | - | - | - |
| 1777382318 | 34.44° C | 40% | 910 hPa | - | - | - | - |
| 1777381718 | 34.44° C | 39% | 909 hPa | - | - | - | - |
| 1777381118 | 35° C | 39% | 909 hPa | - | - | - | - |
| 1777380518 | 35° C | 39% | 909 hPa | - | - | - | - |
* Rain since midnight (hover to see other rain measurements)
** Current wind speed in m/s (hover to see current wind gust speed)